sensor_id;sensor_type;location;lat;lon;timestamp;P1;durP1;ratioP1;P2;durP2;ratioP2
58260;SDS011;44058;52.898;6.502;2023-08-06T00:01:06;7.20;;;6.50;;
58260;SDS011;44058;52.898;6.502;2023-08-06T00:03:32;8.05;;;7.28;;
58260;SDS011;44058;52.898;6.502;2023-08-06T00:05:59;7.00;;;6.40;;
58260;SDS011;44058;52.898;6.502;2023-08-06T00:08:25;9.13;;;7.88;;
58260;SDS011;44058;52.898;6.502;2023-08-06T00:10:52;9.77;;;8.02;;
58260;SDS011;44058;52.898;6.502;2023-08-06T00:13:18;7.55;;;6.85;;
58260;SDS011;44058;52.898;6.502;2023-08-06T00:15:44;11.93;;;7.50;;
58260;SDS011;44058;52.898;6.502;2023-08-06T00:18:10;9.10;;;7.63;;
58260;SDS011;44058;52.898;6.502;2023-08-06T00:20:38;8.70;;;7.18;;
58260;SDS011;44058;52.898;6.502;2023-08-06T00:25:31;8.23;;;7.38;;
58260;SDS011;44058;52.898;6.502;2023-08-06T00:27:57;8.60;;;7.70;;
58260;SDS011;44058;52.898;6.502;2023-08-06T00:30:23;10.73;;;7.75;;
58260;SDS011;44058;52.898;6.502;2023-08-06T00:32:49;7.55;;;6.70;;
58260;SDS011;44058;52.898;6.502;2023-08-06T00:35:15;9.35;;;7.82;;
58260;SDS011;44058;52.898;6.502;2023-08-06T00:37:41;8.57;;;7.47;;
58260;SDS011;44058;52.898;6.502;2023-08-06T00:40:07;8.00;;;7.20;;
58260;SDS011;44058;52.898;6.502;2023-08-06T00:42:33;7.85;;;7.15;;
58260;SDS011;44058;52.898;6.502;2023-08-06T00:45:00;8.15;;;6.90;;
58260;SDS011;44058;52.898;6.502;2023-08-06T00:47:26;8.38;;;7.57;;
58260;SDS011;44058;52.898;6.502;2023-08-06T00:49:52;8.35;;;7.53;;
58260;SDS011;44058;52.898;6.502;2023-08-06T00:52:18;10.00;;;7.38;;
58260;SDS011;44058;52.898;6.502;2023-08-06T00:54:44;8.93;;;7.78;;
58260;SDS011;44058;52.898;6.502;2023-08-06T00:57:10;8.18;;;6.97;;
58260;SDS011;44058;52.898;6.502;2023-08-06T00:59:37;8.75;;;7.53;;
58260;SDS011;44058;52.898;6.502;2023-08-06T01:02:03;8.05;;;7.35;;
58260;SDS011;44058;52.898;6.502;2023-08-06T01:04:29;8.25;;;7.45;;
58260;SDS011;44058;52.898;6.502;2023-08-06T01:09:47;7.93;;;6.47;;
58260;SDS011;44058;52.898;6.502;2023-08-06T01:17:28;11.13;;;7.53;;
58260;SDS011;44058;52.898;6.502;2023-08-06T01:19:55;8.95;;;6.80;;
58260;SDS011;44058;52.898;6.502;2023-08-06T01:22:21;7.88;;;6.55;;
58260;SDS011;44058;52.898;6.502;2023-08-06T01:24:48;6.68;;;5.97;;
58260;SDS011;44058;52.898;6.502;2023-08-06T01:27:17;8.02;;;6.45;;
58260;SDS011;44058;52.898;6.502;2023-08-06T01:29:50;7.68;;;6.40;;
58260;SDS011;44058;52.898;6.502;2023-08-06T01:32:20;6.43;;;5.82;;
58260;SDS011;44058;52.898;6.502;2023-08-06T01:34:47;8.02;;;6.40;;
58260;SDS011;44058;52.898;6.502;2023-08-06T01:37:14;7.57;;;6.88;;
58260;SDS011;44058;52.898;6.502;2023-08-06T01:39:42;7.55;;;6.75;;
58260;SDS011;44058;52.898;6.502;2023-08-06T01:42:08;7.18;;;6.30;;
58260;SDS011;44058;52.898;6.502;2023-08-06T01:44:34;7.05;;;6.22;;
58260;SDS011;44058;52.898;6.502;2023-08-06T01:47:01;8.80;;;6.28;;
58260;SDS011;44058;52.898;6.502;2023-08-06T01:49:27;7.38;;;6.22;;
58260;SDS011;44058;52.898;6.502;2023-08-06T01:51:53;6.70;;;5.97;;
58260;SDS011;44058;52.898;6.502;2023-08-06T01:54:19;7.57;;;6.15;;
58260;SDS011;44058;52.898;6.502;2023-08-06T01:56:45;6.60;;;5.90;;
58260;SDS011;44058;52.898;6.502;2023-08-06T01:59:11;7.10;;;6.20;;
58260;SDS011;44058;52.898;6.502;2023-08-06T02:01:37;6.55;;;5.95;;
58260;SDS011;44058;52.898;6.502;2023-08-06T02:04:03;6.30;;;5.75;;
58260;SDS011;44058;52.898;6.502;2023-08-06T02:06:29;6.30;;;5.68;;
58260;SDS011;44058;52.898;6.502;2023-08-06T02:08:55;8.50;;;6.78;;
58260;SDS011;44058;52.898;6.502;2023-08-06T02:11:21;8.75;;;6.40;;
58260;SDS011;44058;52.898;6.502;2023-08-06T02:13:48;6.63;;;5.95;;
58260;SDS011;44058;52.898;6.502;2023-08-06T02:16:14;6.82;;;6.13;;
58260;SDS011;44058;52.898;6.502;2023-08-06T02:18:40;6.95;;;6.10;;
58260;SDS011;44058;52.898;6.502;2023-08-06T02:21:07;7.40;;;5.57;;
58260;SDS011;44058;52.898;6.502;2023-08-06T02:23:33;6.63;;;6.03;;
58260;SDS011;44058;52.898;6.502;2023-08-06T02:26:02;9.52;;;6.18;;
58260;SDS011;44058;52.898;6.502;2023-08-06T02:28:29;7.18;;;6.20;;
58260;SDS011;44058;52.898;6.502;2023-08-06T02:30:55;6.50;;;5.75;;
58260;SDS011;44058;52.898;6.502;2023-08-06T02:33:21;7.00;;;6.30;;
58260;SDS011;44058;52.898;6.502;2023-08-06T02:35:47;6.75;;;6.00;;
58260;SDS011;44058;52.898;6.502;2023-08-06T02:38:13;7.40;;;6.13;;
58260;SDS011;44058;52.898;6.502;2023-08-06T02:40:43;6.75;;;5.80;;
58260;SDS011;44058;52.898;6.502;2023-08-06T02:43:10;10.35;;;6.10;;
58260;SDS011;44058;52.898;6.502;2023-08-06T02:45:36;7.22;;;6.53;;
58260;SDS011;44058;52.898;6.502;2023-08-06T02:48:02;7.32;;;6.30;;
58260;SDS011;44058;52.898;6.502;2023-08-06T02:50:29;7.15;;;6.03;;
58260;SDS011;44058;52.898;6.502;2023-08-06T02:52:55;7.75;;;6.70;;
58260;SDS011;44058;52.898;6.502;2023-08-06T02:55:21;6.82;;;6.22;;
58260;SDS011;44058;52.898;6.502;2023-08-06T02:57:47;7.68;;;6.65;;
58260;SDS011;44058;52.898;6.502;2023-08-06T03:00:13;8.52;;;6.30;;
58260;SDS011;44058;52.898;6.502;2023-08-06T03:02:39;10.40;;;6.90;;
58260;SDS011;44058;52.898;6.502;2023-08-06T03:05:05;6.72;;;6.13;;
58260;SDS011;44058;52.898;6.502;2023-08-06T03:07:31;6.93;;;6.20;;
58260;SDS011;44058;52.898;6.502;2023-08-06T03:09:59;9.45;;;6.68;;
58260;SDS011;44058;52.898;6.502;2023-08-06T03:12:28;7.38;;;6.32;;
58260;SDS011;44058;52.898;6.502;2023-08-06T03:14:55;7.95;;;6.20;;
58260;SDS011;44058;52.898;6.502;2023-08-06T03:17:21;7.90;;;6.45;;
58260;SDS011;44058;52.898;6.502;2023-08-06T03:19:47;9.02;;;6.82;;
58260;SDS011;44058;52.898;6.502;2023-08-06T03:22:13;8.52;;;6.82;;
58260;SDS011;44058;52.898;6.502;2023-08-06T03:24:39;7.57;;;6.22;;
58260;SDS011;44058;52.898;6.502;2023-08-06T03:27:05;9.15;;;6.57;;
58260;SDS011;44058;52.898;6.502;2023-08-06T03:29:31;7.45;;;6.75;;
58260;SDS011;44058;52.898;6.502;2023-08-06T03:31:57;6.45;;;5.85;;
58260;SDS011;44058;52.898;6.502;2023-08-06T03:34:23;7.53;;;6.82;;
58260;SDS011;44058;52.898;6.502;2023-08-06T03:36:49;8.98;;;6.57;;
58260;SDS011;44058;52.898;6.502;2023-08-06T03:39:15;7.70;;;7.00;;
58260;SDS011;44058;52.898;6.502;2023-08-06T03:41:42;7.97;;;7.05;;
58260;SDS011;44058;52.898;6.502;2023-08-06T03:44:08;9.43;;;6.38;;
58260;SDS011;44058;52.898;6.502;2023-08-06T03:46:34;7.25;;;6.55;;
58260;SDS011;44058;52.898;6.502;2023-08-06T03:49:00;7.75;;;6.82;;
58260;SDS011;44058;52.898;6.502;2023-08-06T03:51:26;7.28;;;6.50;;
58260;SDS011;44058;52.898;6.502;2023-08-06T03:53:52;10.02;;;7.20;;
58260;SDS011;44058;52.898;6.502;2023-08-06T03:56:18;7.60;;;6.85;;
58260;SDS011;44058;52.898;6.502;2023-08-06T03:58:45;7.47;;;6.78;;
58260;SDS011;44058;52.898;6.502;2023-08-06T04:01:11;8.15;;;7.35;;
58260;SDS011;44058;52.898;6.502;2023-08-06T04:03:37;7.68;;;6.90;;
58260;SDS011;44058;52.898;6.502;2023-08-06T04:06:03;9.02;;;7.30;;
58260;SDS011;44058;52.898;6.502;2023-08-06T04:08:29;8.20;;;7.07;;
58260;SDS011;44058;52.898;6.502;2023-08-06T04:10:55;8.02;;;7.18;;
58260;SDS011;44058;52.898;6.502;2023-08-06T04:13:21;7.88;;;7.00;;
58260;SDS011;44058;52.898;6.502;2023-08-06T04:15:48;7.70;;;7.00;;
58260;SDS011;44058;52.898;6.502;2023-08-06T04:18:14;8.57;;;7.68;;
58260;SDS011;44058;52.898;6.502;2023-08-06T04:20:44;7.82;;;7.13;;
58260;SDS011;44058;52.898;6.502;2023-08-06T04:23:10;8.90;;;8.05;;
58260;SDS011;44058;52.898;6.502;2023-08-06T04:25:37;8.00;;;7.20;;
58260;SDS011;44058;52.898;6.502;2023-08-06T04:28:03;8.25;;;7.45;;
58260;SDS011;44058;52.898;6.502;2023-08-06T04:30:29;9.27;;;8.10;;
58260;SDS011;44058;52.898;6.502;2023-08-06T04:32:58;8.18;;;7.38;;
58260;SDS011;44058;52.898;6.502;2023-08-06T04:35:25;9.23;;;7.20;;
58260;SDS011;44058;52.898;6.502;2023-08-06T04:37:51;9.55;;;8.52;;
58260;SDS011;44058;52.898;6.502;2023-08-06T04:40:17;9.18;;;7.55;;
58260;SDS011;44058;52.898;6.502;2023-08-06T04:42:43;8.50;;;7.70;;
58260;SDS011;44058;52.898;6.502;2023-08-06T04:45:09;8.65;;;7.65;;
58260;SDS011;44058;52.898;6.502;2023-08-06T04:47:35;9.25;;;8.30;;
58260;SDS011;44058;52.898;6.502;2023-08-06T04:50:01;8.82;;;7.90;;
58260;SDS011;44058;52.898;6.502;2023-08-06T04:52:27;9.38;;;8.27;;
58260;SDS011;44058;52.898;6.502;2023-08-06T04:54:54;10.60;;;8.10;;
58260;SDS011;44058;52.898;6.502;2023-08-06T04:57:20;8.68;;;7.82;;
58260;SDS011;44058;52.898;6.502;2023-08-06T04:59:46;9.25;;;8.35;;
58260;SDS011;44058;52.898;6.502;2023-08-06T05:02:12;10.32;;;8.13;;
58260;SDS011;44058;52.898;6.502;2023-08-06T05:04:39;10.77;;;8.38;;
58260;SDS011;44058;52.898;6.502;2023-08-06T05:07:05;8.48;;;7.65;;
58260;SDS011;44058;52.898;6.502;2023-08-06T05:09:31;11.63;;;8.45;;
58260;SDS011;44058;52.898;6.502;2023-08-06T05:12:00;8.98;;;8.15;;
58260;SDS011;44058;52.898;6.502;2023-08-06T05:14:26;9.05;;;8.15;;
58260;SDS011;44058;52.898;6.502;2023-08-06T05:16:53;8.70;;;7.97;;
58260;SDS011;44058;52.898;6.502;2023-08-06T05:19:19;8.63;;;7.75;;
58260;SDS011;44058;52.898;6.502;2023-08-06T05:21:45;9.57;;;8.68;;
58260;SDS011;44058;52.898;6.502;2023-08-06T05:24:11;9.00;;;7.90;;
58260;SDS011;44058;52.898;6.502;2023-08-06T05:26:37;11.35;;;8.65;;
58260;SDS011;44058;52.898;6.502;2023-08-06T05:29:03;9.75;;;8.52;;
58260;SDS011;44058;52.898;6.502;2023-08-06T05:31:29;9.60;;;8.55;;
58260;SDS011;44058;52.898;6.502;2023-08-06T05:33:55;10.18;;;8.52;;
58260;SDS011;44058;52.898;6.502;2023-08-06T05:36:21;9.25;;;8.38;;
58260;SDS011;44058;52.898;6.502;2023-08-06T05:38:47;15.45;;;8.85;;
58260;SDS011;44058;52.898;6.502;2023-08-06T05:41:14;9.88;;;8.82;;
58260;SDS011;44058;52.898;6.502;2023-08-06T05:43:40;10.38;;;9.15;;
58260;SDS011;44058;52.898;6.502;2023-08-06T05:46:06;9.63;;;8.73;;
58260;SDS011;44058;52.898;6.502;2023-08-06T05:48:32;10.60;;;8.93;;
58260;SDS011;44058;52.898;6.502;2023-08-06T05:50:58;11.27;;;8.90;;
58260;SDS011;44058;52.898;6.502;2023-08-06T05:53:24;8.70;;;7.90;;
58260;SDS011;44058;52.898;6.502;2023-08-06T05:55:50;9.93;;;8.88;;
58260;SDS011;44058;52.898;6.502;2023-08-06T05:58:16;10.15;;;9.10;;
58260;SDS011;44058;52.898;6.502;2023-08-06T06:00:45;9.68;;;8.77;;
58260;SDS011;44058;52.898;6.502;2023-08-06T06:03:11;10.73;;;8.88;;
58260;SDS011;44058;52.898;6.502;2023-08-06T06:05:37;10.05;;;9.02;;
58260;SDS011;44058;52.898;6.502;2023-08-06T06:08:04;11.80;;;9.35;;
58260;SDS011;44058;52.898;6.502;2023-08-06T06:10:30;10.23;;;8.52;;
58260;SDS011;44058;52.898;6.502;2023-08-06T06:12:59;10.73;;;9.73;;
58260;SDS011;44058;52.898;6.502;2023-08-06T06:15:25;11.25;;;9.15;;
58260;SDS011;44058;52.898;6.502;2023-08-06T06:17:52;10.05;;;9.05;;
58260;SDS011;44058;52.898;6.502;2023-08-06T06:20:18;10.63;;;9.60;;
58260;SDS011;44058;52.898;6.502;2023-08-06T06:22:44;11.32;;;9.95;;
58260;SDS011;44058;52.898;6.502;2023-08-06T06:25:10;10.93;;;9.93;;
58260;SDS011;44058;52.898;6.502;2023-08-06T06:27:36;11.27;;;10.18;;
58260;SDS011;44058;52.898;6.502;2023-08-06T06:30:02;11.05;;;10.05;;
58260;SDS011;44058;52.898;6.502;2023-08-06T06:32:29;12.75;;;10.73;;
58260;SDS011;44058;52.898;6.502;2023-08-06T06:34:55;11.10;;;10.10;;
58260;SDS011;44058;52.898;6.502;2023-08-06T06:37:21;11.20;;;10.05;;
58260;SDS011;44058;52.898;6.502;2023-08-06T06:39:47;13.40;;;10.25;;
58260;SDS011;44058;52.898;6.502;2023-08-06T06:42:13;10.63;;;9.57;;
58260;SDS011;44058;52.898;6.502;2023-08-06T06:44:40;11.02;;;10.00;;
58260;SDS011;44058;52.898;6.502;2023-08-06T06:47:06;11.10;;;10.05;;
58260;SDS011;44058;52.898;6.502;2023-08-06T06:49:32;12.48;;;11.18;;
58260;SDS011;44058;52.898;6.502;2023-08-06T06:51:58;12.02;;;10.45;;
58260;SDS011;44058;52.898;6.502;2023-08-06T06:54:24;11.38;;;9.98;;
58260;SDS011;44058;52.898;6.502;2023-08-06T06:56:50;12.15;;;10.93;;
58260;SDS011;44058;52.898;6.502;2023-08-06T06:59:16;11.20;;;10.02;;
58260;SDS011;44058;52.898;6.502;2023-08-06T07:01:42;11.20;;;9.98;;
58260;SDS011;44058;52.898;6.502;2023-08-06T07:04:08;11.68;;;9.95;;
58260;SDS011;44058;52.898;6.502;2023-08-06T07:06:35;11.88;;;10.68;;
58260;SDS011;44058;52.898;6.502;2023-08-06T07:09:01;11.15;;;9.93;;
58260;SDS011;44058;52.898;6.502;2023-08-06T07:11:27;12.20;;;11.00;;
58260;SDS011;44058;52.898;6.502;2023-08-06T07:13:57;13.27;;;10.30;;
58260;SDS011;44058;52.898;6.502;2023-08-06T07:16:45;12.48;;;11.18;;
58260;SDS011;44058;52.898;6.502;2023-08-06T07:19:12;11.35;;;10.20;;
58260;SDS011;44058;52.898;6.502;2023-08-06T07:21:38;11.85;;;10.48;;
58260;SDS011;44058;52.898;6.502;2023-08-06T07:24:04;11.10;;;10.00;;
58260;SDS011;44058;52.898;6.502;2023-08-06T07:26:30;11.20;;;9.88;;
58260;SDS011;44058;52.898;6.502;2023-08-06T07:28:57;11.52;;;10.48;;
58260;SDS011;44058;52.898;6.502;2023-08-06T07:31:23;10.88;;;9.88;;
58260;SDS011;44058;52.898;6.502;2023-08-06T07:33:49;11.13;;;10.02;;
58260;SDS011;44058;52.898;6.502;2023-08-06T07:36:15;11.50;;;10.48;;
58260;SDS011;44058;52.898;6.502;2023-08-06T07:38:41;11.77;;;10.57;;
58260;SDS011;44058;52.898;6.502;2023-08-06T07:41:08;10.23;;;9.23;;
58260;SDS011;44058;52.898;6.502;2023-08-06T07:43:34;10.48;;;8.85;;
58260;SDS011;44058;52.898;6.502;2023-08-06T07:46:03;10.80;;;9.80;;
58260;SDS011;44058;52.898;6.502;2023-08-06T07:48:30;9.50;;;8.63;;
58260;SDS011;44058;52.898;6.502;2023-08-06T07:50:57;10.82;;;9.73;;
58260;SDS011;44058;52.898;6.502;2023-08-06T07:53:23;10.38;;;9.38;;
58260;SDS011;44058;52.898;6.502;2023-08-06T07:58:18;8.90;;;8.05;;
58260;SDS011;44058;52.898;6.502;2023-08-06T08:00:44;10.15;;;8.77;;
58260;SDS011;44058;52.898;6.502;2023-08-06T08:03:13;10.25;;;9.32;;
58260;SDS011;44058;52.898;6.502;2023-08-06T08:05:40;10.48;;;9.10;;
58260;SDS011;44058;52.898;6.502;2023-08-06T08:08:06;10.23;;;9.23;;
58260;SDS011;44058;52.898;6.502;2023-08-06T08:10:32;10.13;;;9.00;;
58260;SDS011;44058;52.898;6.502;2023-08-06T08:13:00;11.13;;;9.38;;
58260;SDS011;44058;52.898;6.502;2023-08-06T08:15:28;9.52;;;8.70;;
58260;SDS011;44058;52.898;6.502;2023-08-06T08:17:54;10.52;;;8.90;;
58260;SDS011;44058;52.898;6.502;2023-08-06T08:20:21;9.43;;;8.52;;
58260;SDS011;44058;52.898;6.502;2023-08-06T08:22:47;9.63;;;8.75;;
58260;SDS011;44058;52.898;6.502;2023-08-06T08:25:13;9.25;;;8.45;;
58260;SDS011;44058;52.898;6.502;2023-08-06T08:27:39;8.73;;;7.93;;
58260;SDS011;44058;52.898;6.502;2023-08-06T08:30:06;9.48;;;8.60;;
58260;SDS011;44058;52.898;6.502;2023-08-06T08:32:32;8.65;;;7.78;;
58260;SDS011;44058;52.898;6.502;2023-08-06T08:34:58;8.38;;;7.65;;
58260;SDS011;44058;52.898;6.502;2023-08-06T08:37:24;8.95;;;8.15;;
58260;SDS011;44058;52.898;6.502;2023-08-06T08:39:50;9.32;;;8.45;;
58260;SDS011;44058;52.898;6.502;2023-08-06T08:42:17;8.35;;;7.45;;
58260;SDS011;44058;52.898;6.502;2023-08-06T08:44:43;8.85;;;7.85;;
58260;SDS011;44058;52.898;6.502;2023-08-06T08:47:10;8.50;;;7.70;;
58260;SDS011;44058;52.898;6.502;2023-08-06T08:49:37;7.72;;;7.13;;
58260;SDS011;44058;52.898;6.502;2023-08-06T08:52:03;8.02;;;7.22;;
58260;SDS011;44058;52.898;6.502;2023-08-06T08:54:31;8.63;;;7.82;;
58260;SDS011;44058;52.898;6.502;2023-08-06T08:56:58;8.75;;;7.95;;
58260;SDS011;44058;52.898;6.502;2023-08-06T08:59:25;8.77;;;7.88;;
58260;SDS011;44058;52.898;6.502;2023-08-06T09:01:52;8.00;;;7.30;;
58260;SDS011;44058;52.898;6.502;2023-08-06T09:04:19;7.88;;;7.18;;
58260;SDS011;44058;52.898;6.502;2023-08-06T09:06:46;7.57;;;6.93;;
58260;SDS011;44058;52.898;6.502;2023-08-06T09:09:13;7.60;;;6.80;;
58260;SDS011;44058;52.898;6.502;2023-08-06T09:11:44;7.40;;;6.72;;
58260;SDS011;44058;52.898;6.502;2023-08-06T09:14:13;7.80;;;6.97;;
58260;SDS011;44058;52.898;6.502;2023-08-06T09:16:39;8.25;;;6.65;;
58260;SDS011;44058;52.898;6.502;2023-08-06T09:19:08;8.15;;;6.78;;
58260;SDS011;44058;52.898;6.502;2023-08-06T09:21:36;9.57;;;6.75;;
58260;SDS011;44058;52.898;6.502;2023-08-06T09:24:07;6.85;;;6.15;;
58260;SDS011;44058;52.898;6.502;2023-08-06T09:26:33;8.00;;;7.20;;
58260;SDS011;44058;52.898;6.502;2023-08-06T09:28:59;7.45;;;6.72;;
58260;SDS011;44058;52.898;6.502;2023-08-06T09:31:32;7.40;;;6.70;;
58260;SDS011;44058;52.898;6.502;2023-08-06T09:33:59;6.93;;;6.35;;
58260;SDS011;44058;52.898;6.502;2023-08-06T09:36:26;6.53;;;6.03;;
58260;SDS011;44058;52.898;6.502;2023-08-06T09:38:53;7.05;;;5.90;;
58260;SDS011;44058;52.898;6.502;2023-08-06T09:41:28;7.68;;;6.85;;
58260;SDS011;44058;52.898;6.502;2023-08-06T09:43:54;6.47;;;5.55;;
58260;SDS011;44058;52.898;6.502;2023-08-06T09:46:20;6.35;;;5.75;;
58260;SDS011;44058;52.898;6.502;2023-08-06T09:48:47;7.10;;;6.40;;
58260;SDS011;44058;52.898;6.502;2023-08-06T09:51:14;6.72;;;6.13;;
58260;SDS011;44058;52.898;6.502;2023-08-06T09:53:40;5.65;;;5.15;;
58260;SDS011;44058;52.898;6.502;2023-08-06T09:56:06;6.28;;;5.78;;
58260;SDS011;44058;52.898;6.502;2023-08-06T09:58:34;6.88;;;5.30;;
58260;SDS011;44058;52.898;6.502;2023-08-06T10:01:01;5.68;;;5.18;;
58260;SDS011;44058;52.898;6.502;2023-08-06T10:03:28;6.88;;;5.88;;
58260;SDS011;44058;52.898;6.502;2023-08-06T10:05:57;5.68;;;5.22;;
58260;SDS011;44058;52.898;6.502;2023-08-06T10:08:24;5.57;;;5.15;;
58260;SDS011;44058;52.898;6.502;2023-08-06T10:10:50;5.10;;;4.57;;
58260;SDS011;44058;52.898;6.502;2023-08-06T10:13:16;7.07;;;4.95;;
58260;SDS011;44058;52.898;6.502;2023-08-06T10:15:43;4.97;;;4.45;;
58260;SDS011;44058;52.898;6.502;2023-08-06T10:18:09;5.63;;;5.07;;
58260;SDS011;44058;52.898;6.502;2023-08-06T10:20:36;5.10;;;4.60;;
58260;SDS011;44058;52.898;6.502;2023-08-06T10:23:04;5.07;;;4.55;;
58260;SDS011;44058;52.898;6.502;2023-08-06T10:25:31;4.25;;;3.85;;
58260;SDS011;44058;52.898;6.502;2023-08-06T10:27:58;6.60;;;4.35;;
58260;SDS011;44058;52.898;6.502;2023-08-06T10:32:54;3.65;;;3.35;;
58260;SDS011;44058;52.898;6.502;2023-08-06T10:38:19;4.55;;;3.10;;
58260;SDS011;44058;52.898;6.502;2023-08-06T10:40:52;5.18;;;3.20;;
58260;SDS011;44058;52.898;6.502;2023-08-06T10:45:53;3.55;;;3.17;;
58260;SDS011;44058;52.898;6.502;2023-08-06T10:48:28;3.30;;;2.70;;
58260;SDS011;44058;52.898;6.502;2023-08-06T10:50:56;3.40;;;3.03;;
58260;SDS011;44058;52.898;6.502;2023-08-06T10:53:22;2.28;;;2.08;;
58260;SDS011;44058;52.898;6.502;2023-08-06T10:55:48;2.58;;;2.38;;
58260;SDS011;44058;52.898;6.502;2023-08-06T10:58:14;2.53;;;2.30;;
58260;SDS011;44058;52.898;6.502;2023-08-06T11:00:44;3.33;;;2.08;;
58260;SDS011;44058;52.898;6.502;2023-08-06T11:03:10;2.95;;;2.40;;
58260;SDS011;44058;52.898;6.502;2023-08-06T11:05:36;2.90;;;2.70;;
58260;SDS011;44058;52.898;6.502;2023-08-06T11:08:02;2.42;;;2.22;;
58260;SDS011;44058;52.898;6.502;2023-08-06T11:10:28;3.28;;;2.40;;
58260;SDS011;44058;52.898;6.502;2023-08-06T11:12:54;2.95;;;2.10;;
58260;SDS011;44058;52.898;6.502;2023-08-06T11:15:20;2.95;;;2.28;;
58260;SDS011;44058;52.898;6.502;2023-08-06T11:17:47;2.70;;;2.45;;
58260;SDS011;44058;52.898;6.502;2023-08-06T11:20:13;3.35;;;2.55;;
58260;SDS011;44058;52.898;6.502;2023-08-06T11:22:39;2.70;;;2.10;;
58260;SDS011;44058;52.898;6.502;2023-08-06T11:25:06;2.97;;;1.90;;
58260;SDS011;44058;52.898;6.502;2023-08-06T11:27:33;2.08;;;1.75;;
58260;SDS011;44058;52.898;6.502;2023-08-06T11:29:59;3.72;;;1.80;;
58260;SDS011;44058;52.898;6.502;2023-08-06T11:32:25;1.90;;;1.70;;
58260;SDS011;44058;52.898;6.502;2023-08-06T11:34:53;2.15;;;1.73;;
58260;SDS011;44058;52.898;6.502;2023-08-06T11:37:22;2.75;;;1.85;;
58260;SDS011;44058;52.898;6.502;2023-08-06T11:39:50;2.67;;;1.92;;
58260;SDS011;44058;52.898;6.502;2023-08-06T11:42:16;1.83;;;1.67;;
58260;SDS011;44058;52.898;6.502;2023-08-06T11:44:43;2.63;;;1.80;;
58260;SDS011;44058;52.898;6.502;2023-08-06T11:47:15;3.75;;;2.05;;
58260;SDS011;44058;52.898;6.502;2023-08-06T11:49:43;3.10;;;2.03;;
58260;SDS011;44058;52.898;6.502;2023-08-06T11:52:19;2.47;;;1.70;;
58260;SDS011;44058;52.898;6.502;2023-08-06T11:54:47;2.70;;;2.05;;
58260;SDS011;44058;52.898;6.502;2023-08-06T11:57:13;3.22;;;1.90;;
58260;SDS011;44058;52.898;6.502;2023-08-06T11:59:39;2.00;;;1.90;;
58260;SDS011;44058;52.898;6.502;2023-08-06T12:02:07;1.80;;;1.70;;
58260;SDS011;44058;52.898;6.502;2023-08-06T12:07:19;2.10;;;1.90;;
58260;SDS011;44058;52.898;6.502;2023-08-06T12:09:51;4.93;;;2.13;;
58260;SDS011;44058;52.898;6.502;2023-08-06T12:12:17;2.75;;;1.80;;
58260;SDS011;44058;52.898;6.502;2023-08-06T12:14:43;2.00;;;1.67;;
58260;SDS011;44058;52.898;6.502;2023-08-06T12:17:09;2.38;;;1.50;;
58260;SDS011;44058;52.898;6.502;2023-08-06T12:19:36;2.63;;;1.80;;
58260;SDS011;44058;52.898;6.502;2023-08-06T12:22:02;2.95;;;1.83;;
58260;SDS011;44058;52.898;6.502;2023-08-06T12:24:29;1.95;;;1.75;;
58260;SDS011;44058;52.898;6.502;2023-08-06T12:26:57;2.42;;;1.88;;
58260;SDS011;44058;52.898;6.502;2023-08-06T12:29:25;1.67;;;1.58;;
58260;SDS011;44058;52.898;6.502;2023-08-06T12:31:51;3.00;;;1.55;;
58260;SDS011;44058;52.898;6.502;2023-08-06T12:34:17;1.60;;;1.50;;
58260;SDS011;44058;52.898;6.502;2023-08-06T12:36:43;1.95;;;1.73;;
58260;SDS011;44058;52.898;6.502;2023-08-06T12:39:09;1.70;;;1.60;;
58260;SDS011;44058;52.898;6.502;2023-08-06T12:41:35;3.00;;;1.70;;
58260;SDS011;44058;52.898;6.502;2023-08-06T12:44:01;2.47;;;1.77;;
58260;SDS011;44058;52.898;6.502;2023-08-06T12:46:27;4.90;;;1.90;;
58260;SDS011;44058;52.898;6.502;2023-08-06T12:48:54;2.13;;;1.58;;
58260;SDS011;44058;52.898;6.502;2023-08-06T12:51:20;2.13;;;1.50;;
58260;SDS011;44058;52.898;6.502;2023-08-06T12:53:46;2.47;;;1.63;;
58260;SDS011;44058;52.898;6.502;2023-08-06T12:56:12;2.03;;;1.85;;
58260;SDS011;44058;52.898;6.502;2023-08-06T12:58:38;4.93;;;1.70;;
58260;SDS011;44058;52.898;6.502;2023-08-06T13:01:05;2.42;;;1.73;;
58260;SDS011;44058;52.898;6.502;2023-08-06T13:03:31;1.77;;;1.65;;
58260;SDS011;44058;52.898;6.502;2023-08-06T13:05:57;1.75;;;1.65;;
58260;SDS011;44058;52.898;6.502;2023-08-06T13:08:23;2.20;;;1.70;;
58260;SDS011;44058;52.898;6.502;2023-08-06T13:10:49;2.10;;;1.80;;
58260;SDS011;44058;52.898;6.502;2023-08-06T13:13:15;2.17;;;1.80;;
58260;SDS011;44058;52.898;6.502;2023-08-06T13:15:41;1.73;;;1.63;;
58260;SDS011;44058;52.898;6.502;2023-08-06T13:18:08;2.00;;;1.90;;
58260;SDS011;44058;52.898;6.502;2023-08-06T13:20:34;1.80;;;1.70;;
58260;SDS011;44058;52.898;6.502;2023-08-06T13:23:00;2.03;;;1.80;;
58260;SDS011;44058;52.898;6.502;2023-08-06T13:25:26;2.35;;;1.80;;
58260;SDS011;44058;52.898;6.502;2023-08-06T13:27:54;1.90;;;1.77;;
58260;SDS011;44058;52.898;6.502;2023-08-06T13:30:20;2.55;;;1.85;;
58260;SDS011;44058;52.898;6.502;2023-08-06T13:32:48;2.63;;;2.08;;
58260;SDS011;44058;52.898;6.502;2023-08-06T13:35:14;3.05;;;2.08;;
58260;SDS011;44058;52.898;6.502;2023-08-06T13:37:40;2.40;;;1.83;;
58260;SDS011;44058;52.898;6.502;2023-08-06T13:40:06;2.08;;;1.77;;
58260;SDS011;44058;52.898;6.502;2023-08-06T13:42:33;1.55;;;1.45;;
58260;SDS011;44058;52.898;6.502;2023-08-06T13:44:59;2.38;;;2.10;;
58260;SDS011;44058;52.898;6.502;2023-08-06T13:47:28;3.13;;;1.85;;
58260;SDS011;44058;52.898;6.502;2023-08-06T13:49:55;1.83;;;1.73;;
58260;SDS011;44058;52.898;6.502;2023-08-06T13:52:21;2.72;;;1.92;;
58260;SDS011;44058;52.898;6.502;2023-08-06T13:54:47;3.70;;;2.00;;
58260;SDS011;44058;52.898;6.502;2023-08-06T13:57:13;2.05;;;1.90;;
58260;SDS011;44058;52.898;6.502;2023-08-06T13:59:39;2.67;;;2.17;;
58260;SDS011;44058;52.898;6.502;2023-08-06T14:02:06;3.15;;;2.42;;
58260;SDS011;44058;52.898;6.502;2023-08-06T14:04:32;2.38;;;1.85;;
58260;SDS011;44058;52.898;6.502;2023-08-06T14:06:58;2.00;;;1.73;;
58260;SDS011;44058;52.898;6.502;2023-08-06T14:09:24;2.35;;;2.15;;
58260;SDS011;44058;52.898;6.502;2023-08-06T14:11:50;3.58;;;1.88;;
58260;SDS011;44058;52.898;6.502;2023-08-06T14:14:16;1.60;;;1.50;;
58260;SDS011;44058;52.898;6.502;2023-08-06T14:16:42;2.05;;;1.67;;
58260;SDS011;44058;52.898;6.502;2023-08-06T14:19:08;2.85;;;1.85;;
58260;SDS011;44058;52.898;6.502;2023-08-06T14:21:35;1.70;;;1.60;;
58260;SDS011;44058;52.898;6.502;2023-08-06T14:24:01;1.90;;;1.77;;
58260;SDS011;44058;52.898;6.502;2023-08-06T14:26:28;2.10;;;1.90;;
58260;SDS011;44058;52.898;6.502;2023-08-06T14:28:55;3.83;;;1.85;;
58260;SDS011;44058;52.898;6.502;2023-08-06T14:31:21;2.08;;;1.65;;
58260;SDS011;44058;52.898;6.502;2023-08-06T14:33:47;2.75;;;1.88;;
58260;SDS011;44058;52.898;6.502;2023-08-06T14:36:13;2.10;;;1.65;;
58260;SDS011;44058;52.898;6.502;2023-08-06T14:38:39;2.05;;;1.88;;
58260;SDS011;44058;52.898;6.502;2023-08-06T14:41:05;1.70;;;1.60;;
58260;SDS011;44058;52.898;6.502;2023-08-06T14:43:31;3.58;;;2.00;;
58260;SDS011;44058;52.898;6.502;2023-08-06T14:45:57;2.63;;;1.80;;
58260;SDS011;44058;52.898;6.502;2023-08-06T14:48:23;2.30;;;1.60;;
58260;SDS011;44058;52.898;6.502;2023-08-06T14:50:49;2.17;;;1.77;;
58260;SDS011;44058;52.898;6.502;2023-08-06T14:53:16;1.88;;;1.70;;
58260;SDS011;44058;52.898;6.502;2023-08-06T14:55:42;2.17;;;1.98;;
58260;SDS011;44058;52.898;6.502;2023-08-06T14:58:08;4.10;;;1.80;;
58260;SDS011;44058;52.898;6.502;2023-08-06T15:00:34;3.28;;;2.08;;
58260;SDS011;44058;52.898;6.502;2023-08-06T15:03:00;3.72;;;1.80;;